createdAt,value
2019-05-13T00:01:54.016Z,66.30
2019-05-13T00:04:25.743Z,66.50
2019-05-13T00:06:57.768Z,66.60
2019-05-13T00:09:29.482Z,66.80
2019-05-13T00:12:00.692Z,66.70
2019-05-13T00:14:34.286Z,66.30
2019-05-13T00:17:05.261Z,66.20
2019-05-13T00:19:35.542Z,66.50
2019-05-13T00:22:06.540Z,66.60
2019-05-13T00:24:37.780Z,66.10
2019-05-13T00:27:09.110Z,66.30
2019-05-13T00:29:40.948Z,66.30
2019-05-13T00:32:13.420Z,66.30
2019-05-13T00:34:44.527Z,66.40
2019-05-13T00:37:16.750Z,67.10
2019-05-13T00:39:48.341Z,66.60
2019-05-13T00:42:19.578Z,66.20
2019-05-13T00:44:53.126Z,65.90
2019-05-13T00:47:24.048Z,65.70
2019-05-13T00:49:55.344Z,65.40
2019-05-13T00:52:27.555Z,65.60
2019-05-13T00:54:59.259Z,65.80
2019-05-13T00:57:30.852Z,65.90
2019-05-13T01:00:03.507Z,65.80
2019-05-13T01:02:35.280Z,65.60
2019-05-13T01:05:06.635Z,65.40
2019-05-13T01:07:37.849Z,65.20
2019-05-13T01:10:10.282Z,65.00
2019-05-13T01:12:43.825Z,65.60
2019-05-13T01:15:15.578Z,65.10
2019-05-13T01:17:46.823Z,65.20
2019-05-13T01:20:18.325Z,65.20
2019-05-13T01:22:49.609Z,65.40
2019-05-13T01:25:21.106Z,65.40
2019-05-13T01:27:53.707Z,65.10
2019-05-13T01:30:25.166Z,65.10
2019-05-13T01:32:57.030Z,65.00
2019-05-13T01:35:27.144Z,65.20
2019-05-13T01:37:58.273Z,65.30
2019-05-13T01:40:29.535Z,65.30
2019-05-13T01:43:03.602Z,65.30
2019-05-13T01:45:34.390Z,65.20
2019-05-13T01:48:07.389Z,65.10
2019-05-13T01:50:38.497Z,65.10
2019-05-13T01:53:09.730Z,65.50
2019-05-13T01:55:40.897Z,65.30
2019-05-13T01:58:14.406Z,65.00
2019-05-13T02:00:45.298Z,64.80
2019-05-13T02:03:16.566Z,64.50
2019-05-13T02:05:48.090Z,64.80
2019-05-13T02:08:19.650Z,64.60
2019-05-13T02:10:55.330Z,64.40
2019-05-13T02:13:26.885Z,64.50
2019-05-13T02:15:58.998Z,64.70
2019-05-13T02:18:30.599Z,64.80
2019-05-13T02:21:05.167Z,65.00
2019-05-13T02:23:35.135Z,65.00
2019-05-13T02:26:06.663Z,65.10
2019-05-13T02:28:38.143Z,65.20
2019-05-13T02:31:16.500Z,65.40
2019-05-13T02:33:43.121Z,65.10
2019-05-13T02:36:14.307Z,65.50
2019-05-13T02:38:47.537Z,65.60
2019-05-13T02:41:18.480Z,65.30
2019-05-13T02:43:52.656Z,65.30
2019-05-13T02:46:23.256Z,64.80
2019-05-13T02:48:54.441Z,64.50
2019-05-13T02:51:25.680Z,64.30
2019-05-13T02:53:57.354Z,64.30
2019-05-13T02:56:27.574Z,64.50
2019-05-13T02:58:58.604Z,64.50
2019-05-13T03:01:33.005Z,65.20
2019-05-13T03:04:03.393Z,65.20
2019-05-13T03:06:34.826Z,65.90
2019-05-13T03:09:07.987Z,65.80
2019-05-13T03:11:42.325Z,65.80
2019-05-13T03:14:13.369Z,65.80
2019-05-13T03:16:57.157Z,65.80
2019-05-13T03:19:28.727Z,66.50
2019-05-13T03:22:02.959Z,66.70
2019-05-13T03:24:33.403Z,66.30
2019-05-13T03:27:05.418Z,65.90
2019-05-13T03:29:36.727Z,65.90
2019-05-13T03:32:08.088Z,66.00
2019-05-13T03:34:44.731Z,66.00
2019-05-13T03:37:15.377Z,65.90
2019-05-13T03:39:47.570Z,66.10
2019-05-13T03:42:22.590Z,65.70
2019-05-13T03:44:55.891Z,65.80
2019-05-13T03:47:28.584Z,65.40
2019-05-13T03:50:03.541Z,65.00
2019-05-13T03:52:34.805Z,65.90
2019-05-13T03:55:06.954Z,66.50
2019-05-13T03:57:38.231Z,66.70
2019-05-13T04:00:13.205Z,67.00
2019-05-13T04:02:44.918Z,67.10
2019-05-13T04:05:17.169Z,67.00
2019-05-13T04:07:52.031Z,66.50
2019-05-13T04:10:23.213Z,66.10
2019-05-13T04:12:54.802Z,65.80
2019-05-13T04:15:26.701Z,65.90
2019-05-13T04:17:58.338Z,66.10
2019-05-13T04:20:32.990Z,65.90
2019-05-13T04:23:03.249Z,65.90
2019-05-13T04:25:39.475Z,65.60
2019-05-13T04:28:08.336Z,65.20
2019-05-13T04:30:43.525Z,65.20
2019-05-13T04:33:14.146Z,65.00
2019-05-13T04:35:45.995Z,65.30
2019-05-13T04:38:18.314Z,65.20
2019-05-13T04:40:52.814Z,65.90
2019-05-13T04:43:23.812Z,66.50
2019-05-13T04:45:55.452Z,66.10
2019-05-13T04:48:26.768Z,66.10
2019-05-13T04:50:58.053Z,65.60
2019-05-13T04:53:33.017Z,65.50
2019-05-13T04:56:03.304Z,65.80
2019-05-13T04:58:35.042Z,65.90
2019-05-13T05:01:48.819Z,66.00
2019-05-13T05:04:34.786Z,65.90
2019-05-13T05:07:27.595Z,65.40
2019-05-13T05:10:34.793Z,66.10
2019-05-13T05:13:21.887Z,65.70
2019-05-13T05:16:42.003Z,65.10
2019-05-13T05:19:52.540Z,65.40
2019-05-13T05:22:42.597Z,64.60
2019-05-13T05:25:22.197Z,64.90
2019-05-13T05:28:16.025Z,65.00
2019-05-13T05:31:11.411Z,64.50
2019-05-13T05:34:51.911Z,65.30
2019-05-13T05:38:07.544Z,65.50
2019-05-13T05:40:39.426Z,65.60
2019-05-13T05:43:12.574Z,65.00
2019-05-13T05:45:44.601Z,64.90
2019-05-13T05:48:17.919Z,64.50
2019-05-13T05:50:51.588Z,64.50
2019-05-13T05:53:24.948Z,64.40
2019-05-13T05:55:59.403Z,64.50
2019-05-13T05:58:31.564Z,63.90
2019-05-13T06:01:05.034Z,63.70
2019-05-13T06:03:38.670Z,63.90
2019-05-13T06:06:12.508Z,64.30
2019-05-13T06:08:44.400Z,63.90
2019-05-13T06:11:16.035Z,63.10
2019-05-13T06:13:51.550Z,63.30
2019-05-13T06:16:21.878Z,63.20
2019-05-13T06:18:53.578Z,63.80
2019-05-13T06:21:24.761Z,62.90
2019-05-13T06:23:55.961Z,62.60
2019-05-13T06:26:27.575Z,63.00
2019-05-13T06:28:58.855Z,62.70
2019-05-13T06:31:32.276Z,63.00
2019-05-13T06:34:04.167Z,62.20
2019-05-13T06:36:35.453Z,62.80
2019-05-13T06:39:08.723Z,63.00
2019-05-13T06:41:41.648Z,63.30
2019-05-13T06:44:13.402Z,61.70
2019-05-13T06:46:44.915Z,61.50
2019-05-13T06:49:16.605Z,61.30
2019-05-13T06:51:48.508Z,61.50
2019-05-13T06:54:21.918Z,62.20
2019-05-13T06:56:53.039Z,61.50
2019-05-13T06:59:24.622Z,61.50
2019-05-13T07:01:55.879Z,61.60
2019-05-13T07:04:27.187Z,61.30
2019-05-13T07:07:09.812Z,60.90
2019-05-13T07:09:32.783Z,61.30
2019-05-13T07:12:04.165Z,60.80
2019-05-13T07:14:35.864Z,60.00
2019-05-13T07:17:07.610Z,60.30
2019-05-13T07:19:37.736Z,60.70
2019-05-13T07:22:11.485Z,61.10
2019-05-13T07:24:41.829Z,59.80
2019-05-13T07:27:13.166Z,60.40
2019-05-13T07:29:44.611Z,60.70
2019-05-13T07:32:15.953Z,61.80
2019-05-13T07:34:47.225Z,61.90
2019-05-13T07:37:18.923Z,60.40
2019-05-13T07:39:52.812Z,60.00
2019-05-13T07:42:23.452Z,60.00
2019-05-13T07:44:54.749Z,60.60
2019-05-13T07:47:26.263Z,61.00
2019-05-13T07:49:57.421Z,60.10
2019-05-13T07:52:31.746Z,59.80
2019-05-13T07:55:02.026Z,60.70
2019-05-13T07:57:43.395Z,60.40
2019-05-13T08:00:15.521Z,60.00
2019-05-13T08:02:47.345Z,61.00
2019-05-13T08:05:17.630Z,59.80
2019-05-13T08:07:48.710Z,61.10
2019-05-13T08:10:21.942Z,61.10
2019-05-13T08:12:54.351Z,60.40
2019-05-13T08:15:26.203Z,59.70
2019-05-13T08:17:57.478Z,59.70
2019-05-13T08:20:28.809Z,59.40
2019-05-13T08:23:02.540Z,60.10
2019-05-13T08:25:33.398Z,60.00
2019-05-13T08:28:05.234Z,60.40
2019-05-13T08:30:37.570Z,60.40
2019-05-13T08:33:09.266Z,59.60
2019-05-13T08:35:41.717Z,59.70
2019-05-13T08:38:13.632Z,59.60
2019-05-13T08:40:45.263Z,59.20
2019-05-13T08:43:16.549Z,60.00
2019-05-13T08:45:47.869Z,59.00
2019-05-13T08:48:22.038Z,59.70
2019-05-13T08:50:52.681Z,59.00
2019-05-13T08:53:24.271Z,58.80
2019-05-13T08:55:55.472Z,58.40
2019-05-13T08:58:27.262Z,58.40
2019-05-13T09:00:59.105Z,58.80
2019-05-13T09:03:32.303Z,58.30
2019-05-13T09:06:02.984Z,58.30
2019-05-13T09:08:34.394Z,57.40
2019-05-13T09:11:06.652Z,58.00
2019-05-13T09:13:38.304Z,58.00
2019-05-13T09:16:13.152Z,58.10
2019-05-13T09:18:43.250Z,57.60
2019-05-13T09:21:14.476Z,58.80
2019-05-13T09:23:45.709Z,57.90
2019-05-13T09:26:17.649Z,57.70
2019-05-13T09:28:52.207Z,58.00
2019-05-13T09:31:24.159Z,57.40
2019-05-13T09:33:56.112Z,57.70
2019-05-13T09:36:27.390Z,57.60
2019-05-13T09:38:58.997Z,57.70
2019-05-13T09:41:32.293Z,58.50
2019-05-13T09:44:03.600Z,58.30
2019-05-13T09:46:35.846Z,56.60
2019-05-13T09:49:16.207Z,56.60
2019-05-13T09:51:41.638Z,57.10
2019-05-13T09:54:13.083Z,57.90
2019-05-13T09:56:45.094Z,57.40
2019-05-13T09:59:16.342Z,57.00
2019-05-13T10:01:48.573Z,56.70
2019-05-13T10:04:22.271Z,56.80
2019-05-13T10:06:53.374Z,56.90
2019-05-13T10:09:25.638Z,56.80
2019-05-13T10:11:57.219Z,56.30
2019-05-13T10:14:28.829Z,55.90
2019-05-13T10:17:05.789Z,56.30
2019-05-13T10:19:34.612Z,56.70
2019-05-13T10:22:06.120Z,57.30
2019-05-13T10:24:37.881Z,56.70
2019-05-13T10:27:12.213Z,55.70
2019-05-13T10:29:43.457Z,56.30
2019-05-13T10:32:13.686Z,55.60
2019-05-13T10:34:45.820Z,56.10
2019-05-13T10:37:17.277Z,55.60
2019-05-13T10:39:51.761Z,55.90
2019-05-13T10:42:22.515Z,55.60
2019-05-13T10:44:53.849Z,55.40
2019-05-13T10:47:25.238Z,55.70
2019-05-13T10:49:57.051Z,56.00
2019-05-13T10:52:28.683Z,55.30
2019-05-13T10:55:02.011Z,55.30
2019-05-13T10:57:33.372Z,55.40
2019-05-13T11:00:05.588Z,55.90
2019-05-13T11:02:37.196Z,56.60
2019-05-13T11:05:08.980Z,55.50
2019-05-13T11:07:42.076Z,56.10
2019-05-13T11:10:14.312Z,56.40
2019-05-13T11:12:44.882Z,55.70
2019-05-13T11:15:15.930Z,55.80
2019-05-13T11:17:47.641Z,55.80
2019-05-13T11:20:18.836Z,56.00
2019-05-13T11:22:52.141Z,54.70
2019-05-13T11:25:24.744Z,55.50
2019-05-13T11:27:58.437Z,56.30
2019-05-13T11:30:31.801Z,55.40
2019-05-13T11:33:03.201Z,55.10
2019-05-13T11:35:35.376Z,56.10
2019-05-13T11:38:06.681Z,55.70
2019-05-13T11:40:38.217Z,56.40
2019-05-13T11:43:12.284Z,56.90
2019-05-13T11:45:42.885Z,57.00
2019-05-13T11:48:14.588Z,56.30
2019-05-13T11:50:50.145Z,55.60
2019-05-13T11:53:34.514Z,56.20
2019-05-13T11:55:52.214Z,56.20
2019-05-13T11:58:23.812Z,55.70
2019-05-13T12:00:58.041Z,55.00
2019-05-13T12:03:32.160Z,54.30
2019-05-13T12:06:02.907Z,53.20
2019-05-13T12:08:37.994Z,54.20
2019-05-13T12:11:09.474Z,54.00
2019-05-13T12:13:42.777Z,54.50
2019-05-13T12:16:14.087Z,54.80
2019-05-13T12:18:45.534Z,54.40
2019-05-13T12:21:17.799Z,54.60
2019-05-13T12:23:52.742Z,55.30
2019-05-13T12:26:23.912Z,54.60
2019-05-13T12:28:55.708Z,55.60
2019-05-13T12:31:27.291Z,55.40
2019-05-13T12:33:58.555Z,55.00
2019-05-13T12:36:32.757Z,55.80
2019-05-13T12:39:02.763Z,55.30
2019-05-13T12:41:34.592Z,55.40
2019-05-13T12:44:06.322Z,55.10
2019-05-13T12:46:41.289Z,54.60
2019-05-13T12:49:14.276Z,55.10
2019-05-13T12:51:44.845Z,56.20
2019-05-13T12:54:16.379Z,55.60
2019-05-13T12:56:47.615Z,55.10
2019-05-13T12:59:19.775Z,55.30
2019-05-13T13:01:52.893Z,54.50
2019-05-13T13:04:24.707Z,55.20
2019-05-13T13:06:55.042Z,55.30
2019-05-13T13:09:26.737Z,55.10
2019-05-13T13:11:56.931Z,54.30
2019-05-13T13:14:36.213Z,53.50
2019-05-13T13:17:04.147Z,53.60
2019-05-13T13:19:35.722Z,54.70
2019-05-13T13:22:08.243Z,54.30
2019-05-13T13:24:48.396Z,53.60
2019-05-13T13:27:20.821Z,53.50
2019-05-13T13:29:45.651Z,53.40
2019-05-13T13:32:16.985Z,53.50
2019-05-13T13:34:48.825Z,52.60
2019-05-13T13:37:18.934Z,52.40
2019-05-13T13:39:54.692Z,50.90
2019-05-13T13:42:23.329Z,51.30
2019-05-13T13:44:54.894Z,52.20
2019-05-13T13:47:26.571Z,52.40
2019-05-13T13:49:57.795Z,52.10
2019-05-13T13:52:33.577Z,52.40
2019-05-13T13:55:08.596Z,53.10
2019-05-13T13:57:36.901Z,52.40
2019-05-13T14:00:26.370Z,53.30
2019-05-13T14:02:43.117Z,53.20
2019-05-13T14:05:15.130Z,52.90
2019-05-13T14:07:45.608Z,53.50
2019-05-13T14:10:17.337Z,53.50
2019-05-13T14:12:49.337Z,54.10
2019-05-13T14:15:21.567Z,54.10
2019-05-13T14:17:52.944Z,53.90
2019-05-13T14:20:26.583Z,54.10
2019-05-13T14:23:02.771Z,53.80
2019-05-13T14:25:34.287Z,53.90
2019-05-13T14:28:05.899Z,53.80
2019-05-13T14:30:38.217Z,53.60
2019-05-13T14:33:10.267Z,53.70
2019-05-13T14:35:41.880Z,53.90
2019-05-13T14:38:13.411Z,54.10
2019-05-13T14:40:45.490Z,54.10
2019-05-13T14:43:16.969Z,54.10
2019-05-13T14:45:48.219Z,54.10
2019-05-13T14:48:22.268Z,53.50
2019-05-13T14:50:53.003Z,53.80
2019-05-13T14:53:24.291Z,53.80
2019-05-13T14:55:55.751Z,54.20
2019-05-13T14:58:27.380Z,53.90
2019-05-13T15:01:14.765Z,53.20
2019-05-13T15:03:32.759Z,52.80
2019-05-13T15:06:04.724Z,52.50
2019-05-13T15:08:35.993Z,53.10
2019-05-13T15:11:07.786Z,51.80
2019-05-13T15:13:38.062Z,51.70
2019-05-13T15:16:09.077Z,51.50
2019-05-13T15:18:41.615Z,50.90
2019-05-13T15:21:13.366Z,52.50
2019-05-13T15:23:44.835Z,52.80
2019-05-13T15:26:16.424Z,51.50
2019-05-13T15:28:47.801Z,51.70
2019-05-13T15:31:19.196Z,51.50
2019-05-13T15:33:52.430Z,51.30
2019-05-13T15:36:23.945Z,51.00
2019-05-13T15:38:54.085Z,50.70
2019-05-13T15:41:26.167Z,50.30
2019-05-13T15:43:57.676Z,50.00
2019-05-13T15:46:29.277Z,49.10
2019-05-13T15:49:01.710Z,50.20
2019-05-13T15:51:34.717Z,50.00
2019-05-13T15:54:06.530Z,49.40
2019-05-13T15:56:38.266Z,49.70
2019-05-13T15:59:12.248Z,49.70
2019-05-13T16:01:42.809Z,49.80
2019-05-13T16:04:14.053Z,50.20
2019-05-13T16:06:45.346Z,50.30
2019-05-13T16:09:17.209Z,50.80
2019-05-13T16:11:47.704Z,50.70
2019-05-13T16:14:18.832Z,49.80
2019-05-13T16:16:50.547Z,49.10
2019-05-13T16:19:22.136Z,48.70
2019-05-13T16:21:53.721Z,48.50
2019-05-13T16:24:25.157Z,48.20
2019-05-13T16:26:56.451Z,48.70
2019-05-13T16:29:27.670Z,47.60
2019-05-13T16:32:01.343Z,48.10
2019-05-13T16:34:32.118Z,49.50
2019-05-13T16:37:03.445Z,49.00
2019-05-13T16:39:34.697Z,49.30
2019-05-13T16:42:06.572Z,50.00
2019-05-13T16:44:38.154Z,49.70
2019-05-13T16:47:12.146Z,50.50
2019-05-13T16:49:43.982Z,49.80
2019-05-13T16:52:15.637Z,49.90
2019-05-13T16:54:47.116Z,49.70
2019-05-13T16:57:18.639Z,50.20
2019-05-13T16:59:51.767Z,50.80
2019-05-13T17:02:23.057Z,50.10
2019-05-13T17:04:54.635Z,49.50
2019-05-13T17:07:26.321Z,49.20
2019-05-13T17:10:00.161Z,49.70
2019-05-13T17:12:31.722Z,48.30
2019-05-13T17:15:02.999Z,48.50
2019-05-13T17:17:33.828Z,48.10
2019-05-13T17:20:05.702Z,48.40
2019-05-13T17:22:38.007Z,48.50
2019-05-13T17:25:09.350Z,48.20
2019-05-13T17:27:41.871Z,47.20
2019-05-13T17:30:14.089Z,47.30
2019-05-13T17:32:45.357Z,48.70
2019-05-13T17:35:17.303Z,47.70
2019-05-13T17:37:47.474Z,47.60
2019-05-13T17:40:18.565Z,47.80
2019-05-13T17:42:50.038Z,48.20
2019-05-13T17:45:21.979Z,48.00
2019-05-13T17:47:53.608Z,48.50
2019-05-13T17:50:25.218Z,47.90
2019-05-13T17:52:56.835Z,48.10
2019-05-13T17:55:28.139Z,48.70
2019-05-13T17:58:01.418Z,50.00
2019-05-13T18:00:33.590Z,49.40
2019-05-13T18:03:04.872Z,48.70
2019-05-13T18:05:36.164Z,49.20
2019-05-13T18:08:07.364Z,50.00
2019-05-13T18:10:39.233Z,50.80
2019-05-13T18:13:12.623Z,50.40
2019-05-13T18:15:45.054Z,51.40
2019-05-13T18:18:16.646Z,50.60
2019-05-13T18:20:48.208Z,51.40
2019-05-13T18:23:19.860Z,50.90
2019-05-13T18:25:51.600Z,51.60
2019-05-13T18:28:28.433Z,52.30
2019-05-13T18:30:55.652Z,51.60
2019-05-13T18:33:27.411Z,51.60
2019-05-13T18:35:57.632Z,51.80
2019-05-13T18:38:31.131Z,52.30
2019-05-13T18:41:02.482Z,52.10
2019-05-13T18:43:34.080Z,52.20
2019-05-13T18:46:05.551Z,52.10
2019-05-13T18:48:37.069Z,52.20
2019-05-13T18:51:08.528Z,52.10
2019-05-13T18:53:41.444Z,52.50
2019-05-13T18:56:14.358Z,52.70
2019-05-13T18:58:45.977Z,52.70
2019-05-13T19:01:17.236Z,51.50
2019-05-13T19:03:48.696Z,51.20
2019-05-13T19:06:22.189Z,52.50
2019-05-13T19:08:53.206Z,52.60
2019-05-13T19:11:24.524Z,52.50
2019-05-13T19:13:55.762Z,52.50
2019-05-13T19:16:27.617Z,52.90
2019-05-13T19:19:11.835Z,53.00
2019-05-13T19:21:32.525Z,53.00
2019-05-13T19:24:03.747Z,52.70
2019-05-13T19:26:34.976Z,52.90
2019-05-13T19:29:06.133Z,53.20
2019-05-13T19:31:37.324Z,53.50
2019-05-13T19:34:08.495Z,53.30
2019-05-13T19:36:40.311Z,51.80
2019-05-13T19:39:11.390Z,51.90
2019-05-13T19:41:43.265Z,52.70
2019-05-13T19:44:13.403Z,51.30
2019-05-13T19:46:44.380Z,51.00
2019-05-13T19:49:28.748Z,51.20
2019-05-13T19:51:48.829Z,50.90
2019-05-13T19:54:22.263Z,50.90
2019-05-13T19:56:53.306Z,50.90
2019-05-13T19:59:25.319Z,51.40
2019-05-13T20:01:56.914Z,51.90
2019-05-13T20:04:31.141Z,52.50
2019-05-13T20:07:02.160Z,52.50
2019-05-13T20:09:34.047Z,52.20
2019-05-13T20:12:04.512Z,52.10
2019-05-13T20:14:35.868Z,52.10
2019-05-13T20:17:07.694Z,52.10
2019-05-13T20:19:47.775Z,52.10
2019-05-13T20:22:13.934Z,51.90
2019-05-13T20:24:45.368Z,52.50
2019-05-13T20:27:16.876Z,52.80
2019-05-13T20:29:51.056Z,53.00
2019-05-13T20:32:22.353Z,53.30
2019-05-13T20:34:54.432Z,53.60
2019-05-13T20:37:25.983Z,53.90
2019-05-13T20:39:57.189Z,53.50
2019-05-13T20:42:28.958Z,54.00
2019-05-13T20:45:02.425Z,54.20
2019-05-13T20:47:34.809Z,54.50
2019-05-13T20:50:06.825Z,54.50
2019-05-13T20:52:38.013Z,54.30
2019-05-13T20:55:09.861Z,54.50
2019-05-13T20:57:41.720Z,54.70
2019-05-13T21:00:13.424Z,54.50
2019-05-13T21:02:43.588Z,54.30
2019-05-13T21:05:16.202Z,54.70
2019-05-13T21:07:47.667Z,55.20
2019-05-13T21:10:21.074Z,55.20
2019-05-13T21:12:52.178Z,55.30
2019-05-13T21:15:24.360Z,55.30
2019-05-13T21:17:55.651Z,55.40
2019-05-13T21:20:26.933Z,55.30
2019-05-13T21:22:58.165Z,55.80
2019-05-13T21:25:31.103Z,55.80
2019-05-13T21:28:02.642Z,55.60
2019-05-13T21:30:33.939Z,56.10
2019-05-13T21:33:05.470Z,55.80
2019-05-13T21:35:37.015Z,55.60
2019-05-13T21:38:08.330Z,55.00
2019-05-13T21:40:41.557Z,54.50
2019-05-13T21:43:12.879Z,55.00
2019-05-13T21:45:44.426Z,53.80
2019-05-13T21:48:16.001Z,54.00
2019-05-13T21:50:47.607Z,53.10
2019-05-13T21:53:24.158Z,53.50
2019-05-13T21:55:52.617Z,53.00
2019-05-13T21:58:24.150Z,52.90
2019-05-13T22:00:56.111Z,52.60
2019-05-13T22:03:28.380Z,51.60
2019-05-13T22:06:02.001Z,51.80
2019-05-13T22:08:32.909Z,51.70
2019-05-13T22:11:04.127Z,51.40
2019-05-13T22:13:36.269Z,50.70
2019-05-13T22:16:07.523Z,51.00
2019-05-13T22:18:38.749Z,51.10
2019-05-13T22:21:11.823Z,50.00
2019-05-13T22:23:44.116Z,50.70
2019-05-13T22:26:15.289Z,50.40
2019-05-13T22:28:46.526Z,50.40
2019-05-13T22:31:18.215Z,51.40
2019-05-13T22:33:51.813Z,51.00
2019-05-13T22:36:23.480Z,50.70
2019-05-13T22:38:54.657Z,50.70
2019-05-13T22:41:25.889Z,50.40
2019-05-13T22:43:58.995Z,50.90
2019-05-13T22:46:32.224Z,50.40
2019-05-13T22:49:03.594Z,50.50
2019-05-13T22:51:35.155Z,51.90
2019-05-13T22:54:06.404Z,51.10
2019-05-13T22:56:37.643Z,51.10
2019-05-13T22:59:08.809Z,51.20
2019-05-13T23:01:41.824Z,50.70
2019-05-13T23:04:13.517Z,51.50
2019-05-13T23:06:45.005Z,51.60
2019-05-13T23:09:16.188Z,50.50
2019-05-13T23:11:47.894Z,50.90
2019-05-13T23:14:21.828Z,50.60
2019-05-13T23:16:52.372Z,50.50
2019-05-13T23:19:23.816Z,50.40
2019-05-13T23:21:55.310Z,52.30
2019-05-13T23:24:26.500Z,50.40
2019-05-13T23:26:57.732Z,51.00
2019-05-13T23:29:31.725Z,50.90
2019-05-13T23:32:02.260Z,50.60
2019-05-13T23:34:33.449Z,52.20
2019-05-13T23:37:04.614Z,51.60
2019-05-13T23:39:35.835Z,51.30
2019-05-13T23:42:07.083Z,51.20
2019-05-13T23:44:38.521Z,50.70
2019-05-13T23:47:11.432Z,52.50
2019-05-13T23:49:42.559Z,52.10
2019-05-13T23:52:13.742Z,51.90
2019-05-13T23:54:44.908Z,51.20
2019-05-13T23:57:16.334Z,51.60
2019-05-13T23:59:50.941Z,51.20
